Time;durP1;ratioP1;P1;durP2;ratioP2;P2;SDS_P1;SDS_P2;PMS_P1;PMS_P2;Temp;Humidity;BMP_temperature;BMP_pressure;BME280_temperature;BME280_humidity;BME280_pressure;Samples;Min_cycle;Max_cycle;Signal;HPM_P1;HPM_P2
2021/12/09 00:02:52;;;;;;;48.10;19.93;;;;;;;-3.27;94.35;98238.78;3934596;88;21046;-79
2021/12/09 00:08:57;;;;;;;50.23;21.23;;;;;;;-3.27;94.43;98234.77;4030445;87;21101;-79
2021/12/09 00:14:58;;;;;;;61.60;23.57;;;;;;;-3.24;94.49;98232.81;3937731;89;21092;-80
2021/12/09 00:20:59;;;;;;;61.73;27.07;;;;;;;-3.24;94.45;98226.66;3936676;89;21627;-80
2021/12/09 00:27:03;;;;;;;63.70;23.90;;;;;;;-3.25;94.40;98223.22;4026276;86;21063;-79
2021/12/09 00:33:10;;;;;;;53.07;21.60;;;;;;;-3.26;94.44;98220.28;4033258;87;21085;-79
2021/12/09 00:39:13;;;;;;;54.07;24.27;;;;;;;-3.27;94.46;98209.34;4037805;87;21079;-81
2021/12/09 00:45:14;;;;;;;55.67;22.57;;;;;;;-3.24;94.52;98224.79;3938833;89;21539;-80
2021/12/09 00:51:17;;;;;;;56.00;22.77;;;;;;;-3.17;94.56;98228.38;3964990;87;21106;-80
2021/12/09 00:57:19;;;;;;;48.30;21.17;;;;;;;-3.16;94.45;98218.48;3960032;89;21103;-80
2021/12/09 01:03:20;;;;;;;55.33;21.93;;;;;;;-3.19;94.42;98210.48;3962915;87;21143;-80
2021/12/09 01:09:21;;;;;;;52.93;23.00;;;;;;;-3.20;94.44;98199.55;3957349;87;21070;-80
2021/12/09 01:15:24;;;;;;;48.17;22.43;;;;;;;-3.18;94.40;98183.19;3962818;87;21139;-79
2021/12/09 01:21:25;;;;;;;45.23;21.13;;;;;;;-3.19;94.31;98172.24;3959059;88;21707;-80
2021/12/09 01:27:28;;;;;;;49.63;21.37;;;;;;;-3.23;94.33;98166.70;3962516;88;21164;-79
2021/12/09 01:33:32;;;;;;;48.10;21.00;;;;;;;-3.23;94.34;98156.77;3958102;88;21091;-80
2021/12/09 01:39:36;;;;;;;47.17;23.27;;;;;;;-3.28;94.40;98154.23;3963668;88;21082;-79
2021/12/09 01:45:38;;;;;;;51.00;22.67;;;;;;;-3.24;94.35;98156.53;3975806;87;21107;-80
2021/12/09 01:51:41;;;;;;;45.80;21.33;;;;;;;-3.26;94.29;98160.05;3962234;88;21192;-80
2021/12/09 01:57:50;;;;;;;54.43;22.77;;;;;;;-3.28;94.34;98166.28;3983128;87;21041;-80
2021/12/09 02:03:53;;;;;;;56.30;22.77;;;;;;;-3.29;94.32;98151.30;3976738;88;21054;-79
2021/12/09 02:09:54;;;;;;;51.07;22.13;;;;;;;-3.30;94.32;98163.11;3972441;88;21062;-80
2021/12/09 02:16:01;;;;;;;54.20;22.03;;;;;;;-3.34;94.33;98148.77;3931936;89;21555;-80
2021/12/09 02:22:03;;;;;;;46.67;20.83;;;;;;;-3.34;94.38;98156.00;3965432;88;21617;-81
2021/12/09 02:28:05;;;;;;;49.00;21.43;;;;;;;-3.35;94.39;98152.52;3962058;88;21107;-80
2021/12/09 02:34:10;;;;;;;50.33;23.03;;;;;;;-3.34;94.35;98146.63;3929754;88;22273;-80
2021/12/09 02:40:13;;;;;;;48.47;22.07;;;;;;;-3.29;94.40;98139.83;4039134;86;21794;-80
2021/12/09 02:46:16;;;;;;;48.90;21.03;;;;;;;-3.29;94.38;98132.56;4040577;86;21072;-80
2021/12/09 02:52:17;;;;;;;46.87;21.73;;;;;;;-3.28;94.53;98149.42;4031067;87;22042;-80
2021/12/09 02:58:19;;;;;;;47.87;19.67;;;;;;;-3.21;94.52;98148.45;4033605;86;21545;-80
2021/12/09 03:04:21;;;;;;;52.10;21.63;;;;;;;-3.24;94.37;98153.86;4039946;87;21041;-80
2021/12/09 03:10:25;;;;;;;46.93;20.90;;;;;;;-3.21;94.53;98173.89;4029077;87;21305;-79
2021/12/09 03:16:29;;;;;;;48.40;21.80;;;;;;;-3.26;94.38;98161.39;4032168;86;21083;-80
2021/12/09 03:22:31;;;;;;;46.83;21.73;;;;;;;-3.27;94.50;98149.12;4031563;86;21173;-80
2021/12/09 03:28:33;;;;;;;50.10;22.33;;;;;;;-3.27;94.51;98121.55;4028104;87;21570;-80
2021/12/09 03:34:39;;;;;;;49.40;21.67;;;;;;;-3.26;94.57;98122.58;4033140;86;21116;-80
2021/12/09 03:40:40;;;;;;;46.73;18.47;;;;;;;-3.22;94.60;98146.86;3935595;87;21066;-80
2021/12/09 03:46:43;;;;;;;48.00;21.97;;;;;;;-3.25;94.51;98131.41;3938672;89;21827;-80
2021/12/09 03:52:46;;;;;;;51.73;21.90;;;;;;;-3.23;94.65;98155.99;4031999;87;21053;-80
2021/12/09 03:58:47;;;;;;;48.13;21.27;;;;;;;-3.16;94.79;98168.38;4025779;86;21081;-81
2021/12/09 04:04:49;;;;;;;49.20;22.00;;;;;;;-3.10;94.66;98173.84;3943662;89;21095;-80
2021/12/09 04:10:51;;;;;;;44.93;20.57;;;;;;;-3.10;94.61;98159.69;4035212;87;21060;-81
2021/12/09 04:16:53;;;;;;;52.23;21.10;;;;;;;-3.13;94.65;98161.08;4029913;87;64305;-81
2021/12/09 04:22:55;;;;;;;44.93;20.53;;;;;;;-3.11;94.83;98159.43;3985109;88;21539;-80
2021/12/09 04:28:56;;;;;;;45.93;20.37;;;;;;;-3.12;94.56;98162.68;3992123;87;21067;-80
2021/12/09 04:34:57;;;;;;;46.07;21.00;;;;;;;-3.12;94.73;98153.31;3992120;88;21805;-80
2021/12/09 04:40:59;;;;;;;40.27;20.23;;;;;;;-3.07;94.60;98157.20;3999457;87;21075;-80
2021/12/09 04:47:01;;;;;;;46.67;20.93;;;;;;;-3.06;94.60;98135.21;4001018;88;21054;-80
2021/12/09 04:53:04;;;;;;;47.37;20.47;;;;;;;-3.09;94.55;98143.86;3997634;88;21101;-80
2021/12/09 04:59:07;;;;;;;45.60;20.87;;;;;;;-3.12;94.43;98153.84;3999411;87;21129;-80
2021/12/09 05:05:10;;;;;;;44.80;20.70;;;;;;;-3.15;94.43;98140.53;3995916;87;21125;-79
2021/12/09 05:11:31;;;;;;;47.43;21.63;;;;;;;-3.26;94.42;98115.89;3999264;87;21011;-78
2021/12/09 05:17:20;;;;;;;53.00;22.47;;;;;;;-3.33;94.51;98092.80;3994444;87;21074;-80
2021/12/09 05:23:28;;;;;;;45.07;20.60;;;;;;;-3.35;94.71;98119.61;3997396;88;21110;-79
2021/12/09 05:29:37;;;;;;;52.73;22.50;;;;;;;-3.33;94.62;98102.17;3999107;88;21038;-81
2021/12/09 05:35:35;;;;;;;55.23;22.97;;;;;;;-3.36;94.62;98097.97;3991636;86;21906;-80
2021/12/09 05:41:37;;;;;;;60.03;25.27;;;;;;;-3.33;94.76;98123.58;3974318;88;21130;-80
2021/12/09 05:47:39;;;;;;;56.57;25.30;;;;;;;-3.26;94.82;98143.23;3979256;88;21101;-80
2021/12/09 05:53:40;;;;;;;61.23;24.40;;;;;;;-3.20;94.69;98100.51;3976740;88;21132;-81
2021/12/09 05:59:44;;;;;;;74.07;27.93;;;;;;;-3.25;94.76;98112.67;3977973;87;21149;-82
2021/12/09 06:05:46;;;;;;;71.43;26.93;;;;;;;-3.17;94.81;98125.86;3974893;88;21011;-80
2021/12/09 06:11:49;;;;;;;73.10;29.27;;;;;;;-3.13;94.88;98134.88;3972719;88;22237;-81
2021/12/09 06:17:50;;;;;;;70.97;26.33;;;;;;;-3.14;94.84;98146.66;3973855;88;21073;-81
2021/12/09 06:23:52;;;;;;;76.43;27.50;;;;;;;-3.11;94.92;98160.77;3976037;88;21582;-81
2021/12/09 06:29:53;;;;;;;71.60;29.30;;;;;;;-3.11;94.94;98172.28;3975087;88;21093;-81
2021/12/09 06:35:54;;;;;;;76.83;28.67;;;;;;;-3.02;94.99;98200.45;3976691;87;21105;-80
2021/12/09 06:41:56;;;;;;;71.93;29.47;;;;;;;-3.03;94.87;98175.56;3996844;87;21098;-80
2021/12/09 06:47:58;;;;;;;81.83;29.00;;;;;;;-3.06;94.93;98179.39;3999487;87;21593;-82
2021/12/09 06:53:59;;;;;;;68.67;27.47;;;;;;;-3.05;95.08;98187.11;4001731;87;21062;-83
2021/12/09 07:00:01;;;;;;;64.80;26.83;;;;;;;-2.99;94.96;98192.58;4000919;88;21140;-82
2021/12/09 07:06:06;;;;;;;67.00;26.43;;;;;;;-3.02;94.97;98193.77;3998499;87;21081;-80
2021/12/09 07:12:08;;;;;;;71.43;29.17;;;;;;;-3.05;94.99;98207.20;3996238;88;21927;-79
2021/12/09 07:18:10;;;;;;;57.67;25.93;;;;;;;-3.01;95.12;98195.34;4000513;86;21376;-79
2021/12/09 07:24:11;;;;;;;62.97;27.17;;;;;;;-3.01;95.02;98200.16;3998413;88;21085;-80
2021/12/09 07:30:16;;;;;;;57.63;25.93;;;;;;;-2.96;95.15;98189.86;4001902;88;21110;-80
2021/12/09 07:36:18;;;;;;;59.73;25.53;;;;;;;-2.90;95.03;98188.09;3996790;87;21063;-80
2021/12/09 07:42:20;;;;;;;67.30;29.20;;;;;;;-2.91;95.02;98174.44;3979285;88;21037;-80
2021/12/09 07:48:21;;;;;;;64.07;28.03;;;;;;;-2.90;95.08;98165.86;3977243;88;21134;-80
2021/12/09 07:54:24;;;;;;;58.20;26.07;;;;;;;-2.82;95.12;98176.63;3972566;87;21578;-80
2021/12/09 08:00:29;;;;;;;59.87;25.50;;;;;;;-2.80;95.02;98161.59;3975866;88;21482;-80
2021/12/09 08:06:31;;;;;;;58.60;27.67;;;;;;;-2.77;95.02;98177.81;3974829;88;21103;-80
2021/12/09 08:12:33;;;;;;;61.63;26.90;;;;;;;-2.78;95.04;98172.77;3972198;88;21715;-80
2021/12/09 08:18:53;;;;;;;63.50;26.57;;;;;;;-2.77;95.10;98171.12;3977676;88;21569;-79
2021/12/09 08:24:38;;;;;;;62.83;26.47;;;;;;;-2.71;95.07;98180.59;3973707;88;21046;-80
2021/12/09 08:30:40;;;;;;;57.20;26.17;;;;;;;-2.65;95.04;98179.93;3972177;88;21040;-80
2021/12/09 08:36:44;;;;;;;62.17;26.90;;;;;;;-2.62;95.04;98177.43;3980828;87;21098;-79
2021/12/09 08:42:48;;;;;;;61.73;27.60;;;;;;;-2.59;95.04;98166.09;3981879;88;21522;-80
2021/12/09 08:48:49;;;;;;;54.53;25.47;;;;;;;-2.46;95.15;98149.66;3987200;88;21067;-80
2021/12/09 08:54:50;;;;;;;53.53;25.33;;;;;;;-2.40;95.03;98145.73;3989367;87;21412;-81
2021/12/09 09:00:54;;;;;;;58.53;24.70;;;;;;;-2.37;94.88;98175.94;3990212;87;21070;-81
2021/12/09 09:06:59;;;;;;;58.40;25.17;;;;;;;-2.36;95.04;98174.83;3986168;88;21062;-81
2021/12/09 09:13:01;;;;;;;67.43;29.00;;;;;;;-2.23;95.11;98218.97;3989401;88;21107;-80
2021/12/09 09:19:02;;;;;;;59.83;27.07;;;;;;;-2.11;94.95;98139.25;3984657;87;21047;-82
2021/12/09 09:25:07;;;;;;;57.33;24.60;;;;;;;-2.02;94.93;98123.98;3986753;88;21089;-82
2021/12/09 09:31:08;;;;;;;54.77;24.33;;;;;;;-1.99;94.82;98116.64;3986254;88;21709;-83
2021/12/09 09:37:10;;;;;;;55.07;25.33;;;;;;;-2.05;94.79;98095.11;3979598;88;21698;-81
2021/12/09 09:43:28;;;;;;;59.73;26.80;;;;;;;-2.08;94.78;98121.98;3944957;89;21021;-82
2021/12/09 09:49:18;;;;;;;55.63;25.63;;;;;;;-2.04;94.96;98089.97;3942209;89;21168;-81
2021/12/09 09:55:21;;;;;;;58.90;27.00;;;;;;;-1.97;94.74;98102.34;3946353;89;21096;-83
2021/12/09 10:01:25;;;;;;;58.27;25.97;;;;;;;-1.93;94.83;98112.16;3938461;88;21504;-82
2021/12/09 10:07:30;;;;;;;64.40;27.67;;;;;;;-1.86;94.77;98107.09;3941434;88;22390;-83
2021/12/09 10:13:36;;;;;;;62.70;27.23;;;;;;;-1.88;94.60;98085.16;3943908;89;21091;-83
2021/12/09 10:19:43;;;;;;;64.27;28.77;;;;;;;-1.89;94.60;98088.16;3946017;88;21060;-82
2021/12/09 10:25:44;;;;;;;67.37;28.93;;;;;;;-1.88;94.66;98073.66;3948825;88;21166;-82
2021/12/09 10:31:59;;;;;;;57.67;26.30;;;;;;;-1.80;94.80;98075.52;3941791;89;21072;-82
2021/12/09 10:38:03;;;;;;;64.15;28.47;;;;;;;-1.72;94.70;98054.06;3955267;88;21084;-82
2021/12/09 10:44:05;;;;;;;65.47;28.52;;;;;;;-1.62;94.68;98063.14;3995722;88;21662;-82
2021/12/09 10:56:29;;;;;;;60.37;26.67;;;;;;;-1.44;94.51;98037.60;3995754;87;21076;-82
2021/12/09 11:02:30;;;;;;;56.97;27.17;;;;;;;-1.44;94.52;98032.23;3994741;87;21351;-80
2021/12/09 11:08:52;;;;;;;55.93;26.70;;;;;;;-1.45;94.38;98023.38;3997337;87;21073;-81
2021/12/09 11:15:00;;;;;;;60.67;27.13;;;;;;;-1.45;94.46;98030.09;3997664;87;21047;-81
2021/12/09 11:20:57;;;;;;;57.80;26.93;;;;;;;-1.42;94.47;98032.68;3994670;87;21068;-80
2021/12/09 11:27:07;;;;;;;61.00;27.23;;;;;;;-1.41;94.41;98019.52;4002523;88;21571;-80
2021/12/09 11:33:14;;;;;;;60.67;28.23;;;;;;;-1.42;94.36;98016.03;4001218;88;21097;-81
2021/12/09 11:39:20;;;;;;;56.90;27.60;;;;;;;-1.37;94.45;98001.64;3991477;87;21056;-80
2021/12/09 11:45:25;;;;;;;62.25;28.45;;;;;;;-1.35;94.50;98023.59;3986254;88;21938;-80
2021/12/09 11:51:26;;;;;;;60.45;27.77;;;;;;;-1.28;94.50;98010.48;3977028;88;21044;-79
2021/12/09 12:17:13;;;;;;;56.55;28.12;;;;;;;-1.14;94.52;97986.88;4052356;86;21062;-79
2021/12/09 12:23:33;;;;;;;56.70;27.25;;;;;;;-1.08;94.52;97989.61;4040397;85;21537;-80
2021/12/09 12:30:31;;;;;;;62.05;29.90;;;;;;;-1.08;94.54;97993.64;4050860;86;21577;-79
2021/12/09 12:36:43;;;;;;;58.70;26.27;;;;;;;-0.99;94.80;98000.55;3964308;88;21183;-80
2021/12/09 12:42:49;;;;;;;61.68;27.42;;;;;;;-0.87;94.54;98018.11;3949193;87;21094;-80
2021/12/09 12:49:15;;;;;;;65.30;30.92;;;;;;;-0.94;94.40;98001.69;3939005;89;21169;-81
2021/12/09 12:55:16;;;;;;;67.80;30.27;;;;;;;-0.92;94.46;97997.33;3937904;89;21092;-80
2021/12/09 13:01:19;;;;;;;56.57;27.30;;;;;;;-0.89;94.42;97988.08;4029565;87;21075;-80
2021/12/09 13:14:04;;;;;;;59.67;28.83;;;;;;;-0.89;94.48;97968.50;4010876;87;21043;-80
2021/12/09 13:20:10;;;;;;;54.77;27.15;;;;;;;-0.89;94.52;97978.67;4033650;87;21074;-82
2021/12/09 13:26:19;;;;;;;55.25;26.42;;;;;;;-0.88;94.59;97973.55;3941264;88;21049;-81
2021/12/09 13:32:57;;;;;;;56.77;26.85;;;;;;;-0.80;94.45;97980.75;3928752;89;21495;-81
2021/12/09 13:57:54;;;;;;;59.05;27.32;;;;;;;-0.63;94.50;98000.83;3946395;88;21550;-82
2021/12/09 14:03:55;;;;;;;60.05;27.90;;;;;;;-0.62;94.35;97990.30;3956522;88;21070;-83
2021/12/09 14:10:05;;;;;;;49.45;25.35;;;;;;;-0.70;94.12;97962.91;3950671;88;22367;-81
2021/12/09 14:22:37;;;;;;;64.07;30.43;;;;;;;-0.85;94.34;97970.21;4020777;87;21075;-81
2021/12/09 14:28:38;;;;;;;64.12;28.07;;;;;;;-0.85;94.34;97970.21;4021579;87;21146;-81
2021/12/09 14:34:50;;;;;;;76.05;35.08;;;;;;;-0.86;94.15;97976.68;4006753;86;21091;-80
2021/12/09 14:41:01;;;;;;;74.90;31.87;;;;;;;-0.90;94.16;97962.34;4054675;86;21557;-82
2021/12/09 14:47:10;;;;;;;74.58;32.90;;;;;;;-0.89;94.29;97965.24;4060184;85;21046;-81
2021/12/09 14:53:14;;;;;;;61.63;28.70;;;;;;;-0.96;94.13;97954.23;4052178;86;21082;-82
2021/12/09 14:59:25;;;;;;;60.83;28.02;;;;;;;-1.04;94.09;97956.41;4052796;86;21761;-81
2021/12/09 15:05:29;;;;;;;61.47;28.43;;;;;;;-1.06;94.11;97968.57;4053383;85;21071;-82
2021/12/09 15:11:38;;;;;;;64.97;28.75;;;;;;;-1.14;94.05;97975.56;4049914;85;21018;-82
2021/12/09 15:17:53;;;;;;;68.20;30.32;;;;;;;-1.17;94.14;97970.84;4055767;85;21070;-83
2021/12/09 15:23:59;;;;;;;65.87;28.17;;;;;;;-1.17;94.19;97985.61;4041041;85;21066;-82
2021/12/09 15:30:00;;;;;;;57.97;25.30;;;;;;;-1.15;94.26;97972.66;4045427;86;21007;-82
2021/12/09 15:36:09;;;;;;;68.30;29.45;;;;;;;-1.21;94.10;97943.07;4051690;86;21123;-82
2021/12/09 15:42:25;;;;;;;76.25;32.13;;;;;;;-1.24;94.16;97942.92;3948323;88;21091;-81
2021/12/09 15:48:39;;;;;;;76.82;33.63;;;;;;;-1.29;94.16;97935.05;3947624;89;21080;-82
2021/12/09 15:54:46;;;;;;;71.72;32.28;;;;;;;-1.32;94.19;97926.30;3940822;89;21006;-82
2021/12/09 16:00:51;;;;;;;77.42;35.48;;;;;;;-1.33;94.24;97929.53;3943930;88;22118;-82
2021/12/09 16:06:54;;;;;;;90.50;38.00;;;;;;;-1.53;94.38;97906.09;3948156;88;21124;-83
2021/12/09 16:12:57;;;;;;;77.92;35.10;;;;;;;-1.53;94.38;97906.09;3960338;88;21114;-82
2021/12/09 16:19:00;;;;;;;71.33;31.40;;;;;;;-1.40;94.44;97937.31;3948342;89;21065;-82
2021/12/09 16:25:14;;;;;;;76.07;33.73;;;;;;;-1.38;94.34;97951.20;3936253;89;21573;-81
2021/12/09 16:31:15;;;;;;;82.05;34.67;;;;;;;-1.42;94.31;97940.87;3942640;88;21042;-83
2021/12/09 16:37:16;;;;;;;102.70;42.43;;;;;;;-1.46;94.43;97960.08;3933143;87;21844;-82
2021/12/09 16:43:27;;;;;;;79.00;35.63;;;;;;;-1.49;94.37;97960.72;3964038;88;21085;-82
2021/12/09 16:49:28;;;;;;;82.55;35.15;;;;;;;-1.50;94.30;97957.79;3989547;88;21144;-83
2021/12/09 16:55:32;;;;;;;99.50;42.13;;;;;;;-1.51;94.43;97980.92;3970461;87;21125;-82
2021/12/09 17:01:36;;;;;;;85.28;38.40;;;;;;;-1.49;94.56;98003.67;3969173;88;21087;-83
2021/12/09 17:07:40;;;;;;;90.27;38.67;;;;;;;-1.52;94.45;97996.27;3969919;87;21018;-83
2021/12/09 17:13:43;;;;;;;83.33;35.23;;;;;;;-1.54;94.37;97967.61;3994772;88;21028;-82
2021/12/09 17:19:45;;;;;;;87.60;37.73;;;;;;;-1.57;94.46;97987.58;3976906;88;21057;-81
2021/12/09 17:25:50;;;;;;;86.17;37.87;;;;;;;-1.57;94.44;97971.48;3976500;87;21463;-83
2021/12/09 17:31:52;;;;;;;82.40;36.03;;;;;;;-1.61;94.53;97972.12;3977404;88;21061;-82
2021/12/09 17:37:54;;;;;;;91.20;36.68;;;;;;;-1.61;94.45;97953.88;3975763;87;21112;-83
2021/12/09 17:43:57;;;;;;;86.87;35.60;;;;;;;-1.65;94.58;97960.46;3951604;88;21618;-81
2021/12/09 17:50:00;;;;;;;92.70;38.17;;;;;;;-1.64;94.45;97969.28;3956044;89;21062;-83
2021/12/09 17:56:01;;;;;;;93.72;39.73;;;;;;;-1.64;94.48;97954.52;3931565;89;21073;-82
2021/12/09 18:02:04;;;;;;;91.17;35.10;;;;;;;-1.63;94.58;97953.44;3838213;84;10000387;-83
2021/12/09 18:08:09;;;;;;;95.40;37.20;;;;;;;-1.68;94.51;97942.87;4028385;87;21043;-82
2021/12/09 18:14:10;;;;;;;90.95;35.33;;;;;;;-1.68;94.63;97932.13;4023802;87;20996;-82
2021/12/09 18:20:15;;;;;;;94.90;37.50;;;;;;;-1.70;94.51;97936.48;4035182;85;21737;-82
2021/12/09 18:26:17;;;;;;;92.42;36.65;;;;;;;-1.71;94.55;97924.73;4010415;87;21030;-82
2021/12/09 18:32:18;;;;;;;84.90;36.30;;;;;;;-1.77;94.57;97916.05;4022822;85;21541;-83
2021/12/09 18:38:21;;;;;;;90.03;36.37;;;;;;;-1.75;94.74;97917.06;3955665;88;21541;-82
2021/12/09 18:44:24;;;;;;;89.42;38.78;;;;;;;-1.74;94.72;97911.95;3968086;88;21129;-83
2021/12/09 18:50:27;;;;;;;99.10;38.20;;;;;;;-1.72;94.78;97908.38;3963948;88;21065;-82
2021/12/09 18:56:29;;;;;;;94.80;38.13;;;;;;;-1.73;94.74;97910.29;3968995;88;21855;-83
2021/12/09 19:02:31;;;;;;;98.67;35.47;;;;;;;-1.71;94.95;97922.81;3868625;87;10000124;-83
2021/12/09 19:08:33;;;;;;;90.67;34.98;;;;;;;-1.71;94.86;97926.84;3976771;88;21101;-83
2021/12/09 19:14:36;;;;;;;93.73;36.03;;;;;;;-1.70;94.81;97935.69;3964742;88;21129;-83
2021/12/09 19:20:38;;;;;;;86.53;34.10;;;;;;;-1.68;94.89;97929.45;3974275;87;21137;-83
2021/12/09 19:26:39;;;;;;;100.87;38.57;;;;;;;-1.63;95.00;97919.89;3979573;87;21052;-83
2021/12/09 19:32:43;;;;;;;104.87;39.50;;;;;;;-1.60;94.96;97921.92;3967755;87;21081;-83
2021/12/09 19:38:45;;;;;;;97.33;37.67;;;;;;;-1.64;94.73;97907.56;3974332;88;21061;-83
2021/12/09 19:44:46;;;;;;;101.70;40.27;;;;;;;-1.71;94.70;97912.08;3962066;88;21612;-83
2021/12/09 19:50:50;;;;;;;106.37;41.97;;;;;;;-1.72;94.84;97913.74;3946042;89;21483;-83
2021/12/09 19:56:52;;;;;;;115.03;41.37;;;;;;;-1.69;94.90;97911.21;3951357;88;21704;-83
2021/12/09 20:02:56;;;;;;;102.03;38.97;;;;;;;-1.72;94.92;97884.23;3955291;89;22256;-83
2021/12/09 20:08:58;;;;;;;105.05;39.63;;;;;;;-1.65;95.23;97881.30;3938946;88;21102;-83
2021/12/09 20:15:00;;;;;;;98.92;39.05;;;;;;;-1.60;95.00;97881.67;3960588;88;21919;-83
2021/12/09 20:21:08;;;;;;;98.70;39.17;;;;;;;-1.57;95.12;97905.95;3936569;88;21042;-83
2021/12/09 20:27:09;;;;;;;101.50;38.88;;;;;;;-1.52;95.05;97909.03;3946817;89;21193;-83
2021/12/09 20:33:12;;;;;;;108.43;42.30;;;;;;;-1.53;95.00;97906.09;3954915;89;22524;-83
2021/12/09 20:39:13;;;;;;;100.43;38.80;;;;;;;-1.54;94.98;97892.45;3950035;89;21530;-83
2021/12/09 20:45:16;;;;;;;130.82;46.63;;;;;;;-1.57;94.94;97866.81;3948314;88;21153;-82
2021/12/09 20:51:21;;;;;;;109.63;41.87;;;;;;;-1.60;95.16;97860.20;3938174;88;21152;-82
2021/12/09 20:57:22;;;;;;;124.50;43.87;;;;;;;-1.57;95.05;97856.08;3948078;88;22153;-83
2021/12/09 21:03:25;;;;;;;103.87;41.43;;;;;;;-1.58;95.20;97857.20;3949030;88;21132;-83
2021/12/09 21:09:26;;;;;;;108.43;40.90;;;;;;;-1.57;95.17;97864.34;3941065;89;21093;-82
2021/12/09 21:15:28;;;;;;;102.33;40.33;;;;;;;-1.53;95.23;97865.84;3951743;89;21582;-82
2021/12/09 21:21:29;;;;;;;105.13;39.47;;;;;;;-1.53;95.23;97862.39;3959014;88;21595;-82
2021/12/09 21:27:31;;;;;;;104.27;41.57;;;;;;;-1.49;95.37;97856.59;3945536;88;21057;-82
2021/12/09 21:33:40;;;;;;;104.83;40.37;;;;;;;-1.44;95.42;97860.44;3952881;88;21038;-82
2021/12/09 21:39:39;;;;;;;109.78;43.90;;;;;;;-1.44;95.18;97862.55;3945943;89;21073;-82
2021/12/09 21:45:41;;;;;;;116.40;45.13;;;;;;;-1.49;95.10;97852.56;3941773;87;21054;-82
2021/12/09 21:51:44;;;;;;;128.30;45.67;;;;;;;-1.49;95.22;97824.39;3928827;88;21178;-82
2021/12/09 21:57:46;;;;;;;144.37;49.60;;;;;;;-1.46;95.46;97831.23;3923470;89;21146;-82
2021/12/09 22:03:48;;;;;;;114.35;42.00;;;;;;;-1.41;95.52;97849.84;3942909;88;21090;-82
2021/12/09 22:09:49;;;;;;;114.57;41.23;;;;;;;-1.40;95.41;97846.05;3878770;90;21781;-82
2021/12/09 22:15:52;;;;;;;118.57;43.27;;;;;;;-1.37;95.35;97833.86;3911338;89;21092;-82
2021/12/09 22:21:54;;;;;;;119.27;46.47;;;;;;;-1.44;95.44;97815.58;3943073;89;21640;-82
2021/12/09 22:27:56;;;;;;;119.13;44.77;;;;;;;-1.41;95.46;97801.53;3930830;89;21086;-82
2021/12/09 22:33:59;;;;;;;122.17;42.83;;;;;;;-1.38;95.50;97804.91;3934903;89;21633;-82
2021/12/09 22:40:02;;;;;;;117.43;43.63;;;;;;;-1.38;95.45;97814.30;3932653;89;21756;-82
2021/12/09 22:46:04;;;;;;;120.23;42.90;;;;;;;-1.34;95.63;97789.70;3929751;88;21147;-82
2021/12/09 22:52:08;;;;;;;112.72;42.27;;;;;;;-1.35;95.25;97793.52;3935986;89;21152;-82
2021/12/09 22:58:09;;;;;;;121.63;42.83;;;;;;;-1.42;95.27;97762.91;3937270;89;21061;-82
2021/12/09 23:04:15;;;;;;;119.90;43.50;;;;;;;-1.50;95.41;97767.23;3937345;89;22510;-82
2021/12/09 23:10:16;;;;;;;85.47;30.52;;;;;;;-1.43;95.69;97777.45;3938273;89;21152;-82
2021/12/09 23:16:17;;;;;;;114.00;41.77;;;;;;;-1.39;95.60;97766.30;3940119;89;21688;-83
2021/12/09 23:22:20;;;;;;;121.43;43.33;;;;;;;-1.43;95.40;97750.06;3934417;89;21136;-83
2021/12/09 23:28:29;;;;;;;107.72;39.70;;;;;;;-1.38;95.82;97753.90;3933035;89;21087;-82
2021/12/09 23:34:31;;;;;;;117.90;41.80;;;;;;;-1.38;95.66;97762.50;3933890;89;21134;-82
2021/12/09 23:40:35;;;;;;;121.80;44.38;;;;;;;-1.39;95.54;97773.02;3929585;89;21699;-83
2021/12/09 23:46:37;;;;;;;130.00;44.37;;;;;;;-1.38;95.63;97774.58;3964012;88;21222;-82
2021/12/09 23:52:42;;;;;;;116.93;43.33;;;;;;;-1.43;95.70;97760.80;3975215;87;21061;-83
2021/12/09 23:58:45;;;;;;;111.43;43.30;;;;;;;-1.36;95.64;97761.05;3975740;88;21185;-83
